Time;durP1;ratioP1;P1;durP2;ratioP2;P2;SDS_P1;SDS_P2;PMS_P1;PMS_P2;Temp;Humidity;BMP_temperature;BMP_pressure;BME280_temperature;BME280_humidity;BME280_pressure;Samples;Min_cycle;Max_cycle;Signal;HPM_P1;HPM_P2
2023/01/11 00:01:49;;;;;;;0.82;0.70;;;8.20;99.90;;;;;;5073732;28;20210;-43
2023/01/11 00:04:18;;;;;;;1.17;0.93;;;8.20;99.90;;;;;;5073813;28;20250;-44
2023/01/11 00:06:45;;;;;;;1.40;0.80;;;8.30;99.90;;;;;;5072395;28;20703;-44
2023/01/11 00:09:10;;;;;;;0.50;0.47;;;8.30;99.90;;;;;;5073698;28;20213;-43
2023/01/11 00:11:36;;;;;;;1.85;1.00;;;8.30;99.90;;;;;;5074198;28;20154;-44
2023/01/11 00:14:02;;;;;;;0.80;0.65;;;8.30;99.90;;;;;;5073827;28;20228;-44
2023/01/11 00:16:28;;;;;;;0.65;0.65;;;8.30;99.90;;;;;;5073630;28;20530;-44
2023/01/11 00:18:53;;;;;;;0.35;0.35;;;8.40;99.90;;;;;;5073461;28;20170;-44
2023/01/11 00:21:21;;;;;;;0.70;0.70;;;8.50;99.90;;;;;;5073499;28;20173;-43
2023/01/11 00:23:48;;;;;;;1.33;0.95;;;8.50;99.90;;;;;;5073445;28;20166;-43
2023/01/11 00:26:14;;;;;;;0.82;0.82;;;8.50;99.90;;;;;;5073151;28;20162;-43
2023/01/11 00:28:40;;;;;;;0.63;0.40;;;8.60;99.90;;;;;;5073082;28;20202;-43
2023/01/11 00:31:06;;;;;;;1.15;0.65;;;8.60;99.90;;;;;;5073030;28;20241;-43
2023/01/11 00:33:32;;;;;;;1.40;1.17;;;8.70;99.90;;;;;;5073102;28;20556;-43
2023/01/11 00:35:58;;;;;;;0.77;0.70;;;8.70;99.90;;;;;;5073150;28;20172;-44
2023/01/11 00:49:21;;;;;;;0.88;0.65;;;8.80;99.90;;;;;;5072962;28;20730;-44
2023/01/11 00:51:46;;;;;;;1.15;0.85;;;8.80;99.90;;;;;;5072758;28;20166;-43
2023/01/11 00:54:12;;;;;;;0.63;0.63;;;8.80;99.90;;;;;;5071691;28;20186;-43
2023/01/11 00:56:38;;;;;;;0.55;0.52;;;8.90;99.90;;;;;;5073110;28;20170;-43
2023/01/11 00:59:03;;;;;;;0.40;0.40;;;8.80;99.90;;;;;;5072685;28;20177;-43
2023/01/11 01:01:30;;;;;;;0.85;0.70;;;8.90;99.90;;;;;;5072420;28;20158;-43
2023/01/11 01:03:56;;;;;;;0.93;0.50;;;8.90;99.90;;;;;;5072403;28;20178;-43
2023/01/11 01:06:22;;;;;;;0.63;0.47;;;9.00;99.90;;;;;;5072468;28;20194;-43
2023/01/11 01:08:47;;;;;;;1.50;0.85;;;9.00;99.90;;;;;;5071859;28;20278;-43
2023/01/11 01:11:14;;;;;;;2.17;0.60;;;9.00;99.90;;;;;;5071948;28;20162;-43
2023/01/11 01:16:23;;;;;;;0.32;0.30;;;9.00;99.90;;;;;;5072418;28;20176;-43
2023/01/11 01:18:49;;;;;;;0.52;0.50;;;9.00;99.90;;;;;;5072401;28;20173;-43
2023/01/11 01:21:14;;;;;;;0.68;0.40;;;9.10;99.90;;;;;;5072467;28;20194;-43
2023/01/11 01:23:40;;;;;;;1.05;0.65;;;9.10;99.90;;;;;;5072654;28;20634;-43
2023/01/11 01:26:06;;;;;;;0.65;0.60;;;9.20;99.90;;;;;;5072479;28;20166;-43
2023/01/11 01:28:31;;;;;;;0.77;0.77;;;9.20;99.90;;;;;;5072006;28;20557;-43
2023/01/11 01:30:58;;;;;;;0.93;0.50;;;9.10;99.90;;;;;;5072330;28;20204;-44
2023/01/11 01:33:24;;;;;;;0.40;0.40;;;9.10;99.90;;;;;;5072173;28;20182;-43
2023/01/11 01:35:50;;;;;;;0.22;0.22;;;9.20;99.90;;;;;;5072200;28;20158;-44
2023/01/11 01:38:16;;;;;;;0.45;0.45;;;9.20;99.90;;;;;;5072109;28;20652;-43
2023/01/11 01:40:46;;;;;;;1.75;0.52;;;9.30;99.90;;;;;;5072264;28;20209;-44
2023/01/11 01:43:14;;;;;;;0.20;0.20;;;9.30;99.90;;;;;;5072025;28;20695;-44
2023/01/11 01:45:40;;;;;;;0.45;0.35;;;9.30;99.90;;;;;;5072386;28;20162;-43
2023/01/11 01:48:09;;;;;;;0.15;0.15;;;9.30;99.90;;;;;;5072296;28;20205;-43
2023/01/11 01:50:45;;;;;;;0.75;0.45;;;9.30;99.90;;;;;;5071920;28;20158;-43
2023/01/11 01:53:15;;;;;;;0.32;0.32;;;9.30;99.90;;;;;;5072163;28;20177;-43
2023/01/11 01:55:47;;;;;;;0.40;0.40;;;9.30;99.90;;;;;;5071998;28;20174;-43
2023/01/11 01:58:16;;;;;;;0.73;0.45;;;9.30;99.90;;;;;;5071829;28;20261;-43
2023/01/11 02:00:43;;;;;;;0.80;0.43;;;9.30;99.90;;;;;;5071750;28;20535;-43
2023/01/11 02:03:15;;;;;;;0.63;0.63;;;9.30;99.90;;;;;;5071944;28;20310;-45
2023/01/11 02:05:40;;;;;;;0.73;0.60;;;9.40;99.90;;;;;;5071506;28;20161;-43
2023/01/11 02:08:15;;;;;;;0.50;0.40;;;9.30;99.90;;;;;;5071953;28;20280;-43
2023/01/11 02:10:41;;;;;;;0.25;0.20;;;9.40;99.90;;;;;;5071792;28;20509;-43
2023/01/11 02:13:09;;;;;;;0.95;0.32;;;9.30;99.90;;;;;;5072075;28;20180;-43
2023/01/11 02:15:35;;;;;;;1.08;0.30;;;9.30;99.90;;;;;;5072004;28;20177;-43
2023/01/11 02:18:01;;;;;;;0.40;0.40;;;9.30;99.90;;;;;;5071613;28;20165;-43
2023/01/11 02:21:02;;;;;;;1.20;0.90;;;9.30;99.90;;;;;;5070269;28;20260;-43
2023/01/11 02:23:51;;;;;;;0.30;0.30;;;9.40;99.90;;;;;;5064406;28;20594;-43
2023/01/11 02:26:46;;;;;;;1.17;0.40;;;9.40;99.90;;;;;;5071537;28;20190;-43
2023/01/11 02:29:29;;;;;;;0.75;0.75;;;9.50;99.90;;;;;;5069162;28;20225;-43
2023/01/11 02:32:12;;;;;;;1.42;0.65;;;9.50;99.90;;;;;;5071715;28;20172;-43
2023/01/11 02:35:17;;;;;;;0.32;0.32;;;9.50;99.90;;;;;;5070527;28;20512;-43
2023/01/11 02:37:53;;;;;;;1.00;0.60;;;9.50;99.90;;;;;;5050412;28;20182;-43
2023/01/11 02:40:21;;;;;;;3.63;0.98;;;9.40;99.90;;;;;;5071471;28;20170;-43
2023/01/11 02:45:59;;;;;;;2.33;1.02;;;9.50;99.90;;;;;;5071984;28;20181;-43
2023/01/11 02:48:49;;;;;;;4.50;1.02;;;9.50;99.90;;;;;;5071193;28;20669;-43
2023/01/11 02:51:22;;;;;;;1.45;1.30;;;9.50;99.90;;;;;;5071330;28;20253;-43
2023/01/11 02:54:10;;;;;;;3.08;2.00;;;9.70;99.90;;;;;;5071540;28;20177;-43
2023/01/11 02:56:40;;;;;;;5.35;2.30;;;9.80;99.90;;;;;;5071583;28;20629;-43
2023/01/11 02:59:10;;;;;;;3.25;2.22;;;10.00;99.90;;;;;;5071531;28;20694;-43
2023/01/11 03:01:44;;;;;;;6.03;2.33;;;10.10;99.90;;;;;;5071295;28;20223;-43
2023/01/11 03:04:30;;;;;;;5.32;1.73;;;10.20;99.90;;;;;;5070937;28;20546;-43
2023/01/11 03:07:14;;;;;;;5.68;2.63;;;10.30;99.90;;;;;;5071144;28;20166;-43
2023/01/11 03:10:01;;;;;;;4.13;1.33;;;10.30;99.90;;;;;;5071326;28;20293;-43
2023/01/11 03:12:50;;;;;;;0.77;0.68;;;10.40;99.90;;;;;;5071012;28;20158;-43
2023/01/11 03:15:38;;;;;;;2.17;1.50;;;10.60;99.90;;;;;;5071042;28;20664;-43
2023/01/11 03:18:25;;;;;;;1.90;1.15;;;10.50;99.90;;;;;;5072610;28;20174;-43
2023/01/11 03:21:10;;;;;;;3.80;2.10;;;10.60;99.90;;;;;;5074858;28;20173;-43
2023/01/11 03:24:00;;;;;;;7.22;2.85;;;10.60;99.90;;;;;;5074943;28;20165;-43
2023/01/11 03:27:00;;;;;;;6.13;1.85;;;10.70;99.90;;;;;;5074605;28;20279;-43
2023/01/11 03:29:29;;;;;;;5.93;2.70;;;10.80;99.90;;;;;;5074358;28;20732;-43
2023/01/11 03:32:10;;;;;;;8.10;3.22;;;10.80;99.90;;;;;;5073234;28;20166;-43
2023/01/11 03:34:47;;;;;;;3.22;1.33;;;10.90;99.90;;;;;;5074755;28;20621;-43
2023/01/11 03:37:32;;;;;;;0.70;0.60;;;10.90;99.90;;;;;;5074503;28;20184;-43
2023/01/11 03:40:24;;;;;;;1.60;1.00;;;11.00;99.90;;;;;;5073193;28;20162;-43
2023/01/11 03:43:12;;;;;;;5.30;1.55;;;11.00;99.90;;;;;;5068585;28;20213;-43
2023/01/11 03:45:57;;;;;;;1.73;0.68;;;11.00;99.90;;;;;;5074420;28;20173;-43
2023/01/11 03:48:28;;;;;;;0.60;0.60;;;11.00;99.90;;;;;;5074077;28;20359;-43
2023/01/11 03:50:55;;;;;;;1.33;0.95;;;10.90;99.90;;;;;;5074052;28;20170;-43
2023/01/11 03:53:24;;;;;;;2.92;0.80;;;10.80;99.90;;;;;;5074016;28;20263;-43
2023/01/11 03:55:55;;;;;;;1.17;0.65;;;10.70;99.90;;;;;;5074248;28;20174;-43
2023/01/11 03:58:20;;;;;;;0.43;0.32;;;10.80;99.90;;;;;;5074208;28;20205;-43
2023/01/11 04:00:48;;;;;;;1.05;0.60;;;10.80;99.90;;;;;;5073972;28;20197;-43
2023/01/11 04:03:13;;;;;;;0.10;0.10;;;10.80;99.90;;;;;;5073719;28;20225;-43
2023/01/11 04:05:42;;;;;;;0.38;0.38;;;10.80;99.90;;;;;;5074381;28;20521;-43
2023/01/11 04:08:09;;;;;;;0.50;0.40;;;10.80;99.90;;;;;;5074193;28;20239;-43
2023/01/11 04:10:35;;;;;;;0.90;0.60;;;10.80;99.90;;;;;;5072738;28;20178;-43
2023/01/11 04:13:01;;;;;;;1.42;0.88;;;10.70;99.90;;;;;;5073678;28;20241;-44
2023/01/11 04:15:29;;;;;;;5.13;1.98;;;10.70;99.90;;;;;;5073573;28;20207;-44
2023/01/11 04:17:55;;;;;;;7.68;3.05;;;10.80;99.90;;;;;;5073586;28;20634;-43
2023/01/11 04:20:20;;;;;;;8.23;2.38;;;10.80;99.90;;;;;;5073735;28;20176;-43
2023/01/11 04:22:46;;;;;;;5.45;1.85;;;10.80;99.90;;;;;;5073478;28;20560;-43
2023/01/11 04:25:11;;;;;;;5.55;2.88;;;10.90;99.90;;;;;;5073811;28;20181;-43
2023/01/11 04:27:37;;;;;;;9.52;3.20;;;10.90;99.90;;;;;;5073348;28;20256;-43
2023/01/11 04:30:03;;;;;;;6.25;3.15;;;10.90;99.90;;;;;;5072888;28;20166;-43
2023/01/11 04:32:28;;;;;;;9.73;2.90;;;10.90;99.90;;;;;;5073368;28;20166;-43
2023/01/11 04:34:54;;;;;;;7.30;3.30;;;10.70;99.90;;;;;;5073382;28;20220;-47
2023/01/11 04:37:19;;;;;;;7.93;2.65;;;10.80;99.90;;;;;;5073365;28;20173;-43
2023/01/11 04:39:45;;;;;;;8.88;3.00;;;10.80;99.90;;;;;;5073276;28;20531;-43
2023/01/11 04:42:17;;;;;;;5.50;2.30;;;10.80;99.90;;;;;;5073179;28;20193;-43
2023/01/11 04:44:47;;;;;;;6.35;3.00;;;10.70;99.90;;;;;;5073059;28;20251;-43
2023/01/11 04:47:14;;;;;;;5.57;3.00;;;10.70;99.90;;;;;;5072904;28;20208;-50
2023/01/11 04:49:40;;;;;;;4.03;2.00;;;10.70;99.90;;;;;;5073101;28;20218;-43
2023/01/11 04:52:05;;;;;;;4.65;2.42;;;10.80;99.90;;;;;;5073276;28;20507;-43
2023/01/11 04:54:31;;;;;;;5.30;2.50;;;10.80;99.90;;;;;;5072846;28;20212;-43
2023/01/11 04:56:57;;;;;;;5.05;2.75;;;10.80;99.90;;;;;;5072923;28;20219;-43
2023/01/11 04:59:22;;;;;;;6.35;2.50;;;10.80;99.90;;;;;;5072746;28;20351;-43
2023/01/11 05:01:48;;;;;;;9.57;2.38;;;10.90;99.90;;;;;;5072533;28;20259;-43
2023/01/11 05:04:13;;;;;;;7.20;2.72;;;10.90;99.90;;;;;;5072634;28;20197;-43
2023/01/11 05:06:39;;;;;;;5.07;1.98;;;10.80;99.90;;;;;;5072632;28;20241;-43
2023/01/11 05:09:09;;;;;;;6.75;2.08;;;10.90;99.90;;;;;;5072880;28;20209;-43
2023/01/11 05:11:35;;;;;;;2.72;2.13;;;10.80;99.90;;;;;;5072875;28;20227;-43
2023/01/11 05:14:00;;;;;;;5.47;2.42;;;10.90;99.90;;;;;;5072407;28;20197;-43
2023/01/11 05:16:26;;;;;;;7.22;2.58;;;11.00;99.90;;;;;;5072413;28;20565;-44
2023/01/11 05:18:53;;;;;;;6.55;3.10;;;11.00;99.90;;;;;;5072450;28;20220;-43
2023/01/11 05:21:22;;;;;;;9.10;2.88;;;10.90;99.90;;;;;;5072611;28;20575;-43
2023/01/11 05:23:47;;;;;;;6.88;2.55;;;10.90;99.90;;;;;;5072557;28;20209;-43
2023/01/11 05:26:17;;;;;;;4.07;2.53;;;10.90;99.90;;;;;;5072209;28;20196;-44
2023/01/11 05:28:43;;;;;;;2.17;1.13;;;10.80;99.90;;;;;;5072135;28;20204;-43
2023/01/11 05:31:08;;;;;;;4.50;1.63;;;10.90;99.90;;;;;;5072533;28;20642;-43
2023/01/11 05:33:34;;;;;;;1.75;0.65;;;10.80;99.90;;;;;;5072088;28;20222;-43
2023/01/11 05:36:05;;;;;;;1.00;0.80;;;10.80;99.90;;;;;;5072098;28;20201;-43
2023/01/11 05:38:31;;;;;;;0.40;0.40;;;10.90;99.90;;;;;;5071913;28;20201;-43
2023/01/11 05:40:58;;;;;;;1.35;0.43;;;10.80;99.90;;;;;;5071444;28;20208;-43
2023/01/11 05:43:25;;;;;;;3.75;1.17;;;10.80;99.90;;;;;;5072005;28;20170;-43
2023/01/11 05:45:51;;;;;;;1.80;1.30;;;10.80;99.90;;;;;;5072022;28;20170;-44
2023/01/11 05:48:17;;;;;;;3.58;1.67;;;10.80;99.90;;;;;;5072058;28;20213;-44
2023/01/11 05:50:43;;;;;;;2.28;1.75;;;10.90;99.90;;;;;;5071561;28;20653;-44
2023/01/11 05:53:09;;;;;;;3.00;1.30;;;10.80;99.90;;;;;;5071882;28;20216;-43
2023/01/11 05:55:35;;;;;;;0.60;0.52;;;10.80;99.90;;;;;;5072331;28;20174;-44
2023/01/11 05:58:03;;;;;;;0.20;0.20;;;10.80;99.90;;;;;;5071506;28;20570;-43
2023/01/11 06:00:29;;;;;;;1.52;0.40;;;10.90;99.90;;;;;;5071759;28;20173;-44
2023/01/11 06:02:54;;;;;;;0.50;0.50;;;10.90;99.90;;;;;;5071613;28;20232;-43
2023/01/11 06:05:20;;;;;;;0.77;0.50;;;10.90;99.90;;;;;;5071669;28;20514;-44
2023/01/11 06:07:45;;;;;;;0.43;0.43;;;10.90;99.90;;;;;;5071588;28;20634;-44
2023/01/11 06:10:11;;;;;;;0.25;0.25;;;11.00;99.90;;;;;;5071648;28;20532;-44
2023/01/11 06:12:37;;;;;;;0.52;0.40;;;10.90;99.90;;;;;;5071886;28;20621;-44
2023/01/11 06:15:03;;;;;;;1.30;0.45;;;10.90;99.90;;;;;;5071536;28;20549;-45
2023/01/11 06:17:28;;;;;;;0.10;0.10;;;11.00;99.90;;;;;;5071243;28;20207;-44
2023/01/11 06:19:54;;;;;;;2.20;0.38;;;10.90;99.90;;;;;;5071431;28;20161;-43
2023/01/11 06:22:19;;;;;;;0.32;0.30;;;10.90;99.90;;;;;;5071489;28;20573;-45
2023/01/11 06:24:45;;;;;;;2.83;0.52;;;11.00;99.90;;;;;;5071512;28;20623;-44
2023/01/11 06:27:11;;;;;;;1.15;0.35;;;10.90;99.90;;;;;;5071506;28;20170;-44
2023/01/11 06:29:36;;;;;;;0.20;0.20;;;10.90;99.90;;;;;;5071621;28;20287;-44
2023/01/11 06:32:02;;;;;;;1.30;0.40;;;10.90;99.90;;;;;;5071444;28;20188;-44
2023/01/11 06:34:27;;;;;;;1.65;0.30;;;11.00;99.90;;;;;;5071685;28;20170;-43
2023/01/11 06:36:53;;;;;;;1.15;0.30;;;10.90;99.90;;;;;;5071404;28;20503;-44
2023/01/11 06:39:18;;;;;;;0.38;0.38;;;10.90;99.90;;;;;;5071437;28;20706;-44
2023/01/11 06:41:44;;;;;;;0.05;0.05;;;10.90;99.90;;;;;;5070065;28;20225;-43
2023/01/11 06:44:09;;;;;;;1.63;0.28;;;10.90;99.90;;;;;;5071359;28;20215;-44
2023/01/11 06:46:35;;;;;;;2.08;0.35;;;11.00;99.90;;;;;;5071489;28;20174;-43
2023/01/11 06:49:01;;;;;;;3.30;0.77;;;11.00;99.90;;;;;;5071241;28;20197;-44
2023/01/11 06:51:27;;;;;;;0.30;0.15;;;11.00;99.90;;;;;;5071201;28;20224;-43
2023/01/11 06:53:52;;;;;;;0.25;0.25;;;11.00;99.90;;;;;;5074158;28;20177;-43
2023/01/11 06:56:18;;;;;;;2.03;0.57;;;11.00;99.90;;;;;;5075159;28;20172;-44
2023/01/11 06:58:44;;;;;;;0.52;0.30;;;11.10;99.90;;;;;;5075004;28;20165;-44
2023/01/11 07:01:10;;;;;;;1.17;0.60;;;11.00;99.90;;;;;;5075066;28;20154;-43
2023/01/11 07:03:38;;;;;;;5.72;0.80;;;11.10;99.90;;;;;;5075129;28;20300;-44
2023/01/11 07:06:03;;;;;;;0.57;0.30;;;11.00;99.90;;;;;;5075167;28;20173;-43
2023/01/11 07:08:29;;;;;;;1.73;0.47;;;11.00;99.90;;;;;;5074671;28;20571;-43
2023/01/11 07:10:54;;;;;;;0.73;0.43;;;11.10;99.90;;;;;;5075002;28;20167;-43
2023/01/11 07:13:20;;;;;;;0.10;0.10;;;11.00;99.90;;;;;;5074886;28;20170;-43
2023/01/11 07:15:49;;;;;;;0.45;0.45;;;11.00;99.90;;;;;;5074857;28;20168;-43
2023/01/11 07:18:15;;;;;;;0.10;0.10;;;11.00;99.90;;;;;;5074863;28;20184;-43
2023/01/11 07:20:41;;;;;;;0.55;0.45;;;11.00;99.90;;;;;;5074576;28;20182;-43
2023/01/11 07:23:07;;;;;;;0.10;0.10;;;11.00;99.90;;;;;;5074838;28;20212;-43
2023/01/11 07:25:33;;;;;;;0.28;0.28;;;11.00;99.90;;;;;;5074762;28;20628;-43
2023/01/11 07:28:01;;;;;;;0.25;0.20;;;11.00;99.90;;;;;;5074448;28;20202;-43
2023/01/11 07:30:29;;;;;;;0.10;0.10;;;11.00;99.90;;;;;;5074466;28;20664;-43
2023/01/11 07:32:57;;;;;;;0.77;0.30;;;10.90;99.90;;;;;;5074667;28;20200;-43
2023/01/11 07:35:23;;;;;;;0.73;0.32;;;11.00;99.90;;;;;;5074418;28;20166;-44
2023/01/11 07:37:48;;;;;;;0.30;0.30;;;11.00;99.90;;;;;;5074329;28;20169;-43
2023/01/11 07:40:15;;;;;;;0.32;0.30;;;11.00;99.90;;;;;;5074376;28;20169;-44
2023/01/11 07:45:34;;;;;;;1.27;0.28;;;10.90;99.90;;;;;;5074532;28;20168;-41
2023/01/11 07:48:01;;;;;;;1.10;0.47;;;10.80;99.90;;;;;;5071809;28;20185;-43
2023/01/11 07:50:27;;;;;;;1.27;0.60;;;10.90;99.90;;;;;;5072536;28;20265;-42
2023/01/11 07:52:52;;;;;;;1.88;0.30;;;10.90;99.90;;;;;;5072258;28;20257;-43
2023/01/11 07:55:18;;;;;;;0.90;0.60;;;10.90;99.90;;;;;;5072458;28;20170;-42
2023/01/11 07:57:43;;;;;;;1.30;0.65;;;10.90;99.90;;;;;;5071952;28;20208;-44
2023/01/11 08:00:09;;;;;;;2.63;0.50;;;10.80;99.90;;;;;;5072030;28;20175;-42
2023/01/11 08:02:35;;;;;;;0.82;0.50;;;10.80;99.90;;;;;;5072272;28;20221;-43
2023/01/11 08:05:00;;;;;;;1.33;0.55;;;10.80;99.90;;;;;;5071449;28;20515;-43
2023/01/11 08:07:26;;;;;;;0.70;0.52;;;10.80;99.90;;;;;;5072022;28;20528;-42
2023/01/11 08:09:52;;;;;;;0.40;0.40;;;10.70;99.90;;;;;;5071980;28;20205;-43
2023/01/11 08:15:01;;;;;;;0.45;0.45;;;10.70;99.90;;;;;;5072078;28;20267;-43
2023/01/11 08:17:27;;;;;;;2.05;0.60;;;10.70;99.90;;;;;;5071693;28;20207;-42
2023/01/11 08:19:54;;;;;;;1.20;0.73;;;10.70;99.90;;;;;;5070570;28;20189;-42
2023/01/11 08:22:20;;;;;;;0.60;0.60;;;10.80;99.90;;;;;;5070459;28;20909;-43
2023/01/11 08:24:46;;;;;;;0.95;0.90;;;10.80;99.90;;;;;;5071540;28;20165;-42
2023/01/11 08:27:12;;;;;;;2.75;0.75;;;10.70;99.90;;;;;;5071904;28;20219;-43
2023/01/11 08:29:38;;;;;;;1.30;0.88;;;10.80;99.90;;;;;;5071740;28;20546;-43
2023/01/11 08:32:04;;;;;;;2.35;0.82;;;10.70;99.90;;;;;;5071810;28;20645;-43
2023/01/11 08:34:30;;;;;;;4.22;1.05;;;10.70;99.90;;;;;;5071377;28;20202;-42
2023/01/11 08:36:56;;;;;;;1.30;1.15;;;10.80;99.90;;;;;;5071365;28;20231;-42
2023/01/11 08:39:23;;;;;;;2.28;1.30;;;10.70;99.90;;;;;;5071603;28;20629;-43
2023/01/11 08:41:49;;;;;;;2.80;1.27;;;10.70;99.90;;;;;;5070326;28;20509;-42
2023/01/11 08:44:15;;;;;;;5.60;1.70;;;10.70;99.90;;;;;;5071245;28;20220;-43
2023/01/11 08:46:41;;;;;;;3.47;1.40;;;10.80;99.90;;;;;;5071249;28;20184;-43
2023/01/11 08:49:10;;;;;;;5.78;1.27;;;10.80;99.90;;;;;;5071393;28;20213;-42
2023/01/11 08:51:38;;;;;;;5.40;1.80;;;10.70;99.90;;;;;;5071406;28;20181;-42
2023/01/11 08:54:08;;;;;;;4.40;1.70;;;10.70;99.90;;;;;;5071635;28;20228;-42
2023/01/11 08:56:34;;;;;;;4.97;1.98;;;10.70;99.90;;;;;;5071555;28;20530;-42
2023/01/11 08:59:01;;;;;;;5.55;2.20;;;10.80;99.90;;;;;;5071047;28;20201;-42
2023/01/11 09:01:27;;;;;;;8.75;2.47;;;10.70;99.90;;;;;;5070878;28;20201;-42
2023/01/11 09:03:52;;;;;;;4.07;2.28;;;10.70;99.90;;;;;;5070940;28;20559;-42
2023/01/11 09:06:18;;;;;;;8.05;2.10;;;10.70;99.90;;;;;;5070936;28;20162;-42
2023/01/11 09:08:44;;;;;;;6.82;2.33;;;10.80;99.90;;;;;;5071001;28;20205;-42
2023/01/11 09:13:55;;;;;;;5.18;2.15;;;10.70;99.90;;;;;;5070514;28;20173;-42
2023/01/11 09:16:20;;;;;;;4.90;1.92;;;10.70;99.90;;;;;;5069689;28;20528;-43
2023/01/11 09:18:46;;;;;;;2.65;1.65;;;10.70;99.90;;;;;;5070613;28;20543;-44
2023/01/11 09:21:11;;;;;;;5.55;2.33;;;10.60;99.90;;;;;;5070599;28;20194;-43
2023/01/11 09:23:37;;;;;;;5.68;2.28;;;10.70;99.90;;;;;;5070716;28;20223;-43
2023/01/11 09:26:03;;;;;;;4.15;2.20;;;11.60;99.90;;;;;;5070899;28;20170;-44
2023/01/11 09:28:28;;;;;;;5.03;2.25;;;10.60;99.90;;;;;;5070396;28;20597;-44
2023/01/11 09:30:54;;;;;;;4.68;2.25;;;10.60;99.90;;;;;;5070226;28;20913;-42
2023/01/11 09:33:19;;;;;;;9.40;2.53;;;8.50;99.90;;;;;;5070163;28;20542;-43
2023/01/11 09:35:45;;;;;;;3.38;2.50;;;10.50;99.90;;;;;;5070416;28;20266;-43
2023/01/11 09:38:12;;;;;;;7.28;2.92;;;10.60;99.90;;;;;;5070185;28;20184;-43
2023/01/11 09:40:53;;;;;;;8.73;3.03;;;10.50;99.90;;;;;;5070177;28;20642;-43
2023/01/11 09:43:23;;;;;;;12.05;3.35;;;10.50;99.90;;;;;;5070432;28;20177;-43
2023/01/11 09:45:51;;;;;;;11.45;3.85;;;10.60;99.90;;;;;;5070357;28;20174;-44
2023/01/11 09:48:42;;;;;;;14.13;3.85;;;10.50;99.90;;;;;;5069965;28;20716;-43
2023/01/11 09:51:12;;;;;;;11.98;4.05;;;10.50;99.90;;;;;;5068733;28;20185;-43
2023/01/11 09:53:37;;;;;;;12.35;3.40;;;10.40;99.90;;;;;;5069705;28;20692;-42
2023/01/11 09:56:08;;;;;;;8.38;3.08;;;10.50;99.90;;;;;;5070584;28;20170;-43
2023/01/11 09:58:55;;;;;;;15.88;4.32;;;10.40;99.90;;;;;;5070257;28;20213;-43
2023/01/11 10:01:56;;;;;;;7.15;3.38;;;10.50;99.90;;;;;;5069811;28;20537;-42
2023/01/11 10:04:43;;;;;;;8.88;2.80;;;10.50;99.90;;;;;;5069936;28;20284;-43
2023/01/11 10:07:58;;;;;;;11.68;4.25;;;10.40;99.90;;;;;;5070124;28;20260;-42
2023/01/11 10:10:42;;;;;;;7.70;3.05;;;10.40;99.90;;;;;;5061481;28;20194;-43
2023/01/11 10:13:39;;;;;;;7.88;2.72;;;10.40;99.90;;;;;;5069670;28;20264;-43
2023/01/11 10:16:08;;;;;;;12.25;3.03;;;10.50;99.90;;;;;;5070147;28;20626;-42
2023/01/11 10:19:00;;;;;;;5.43;2.38;;;10.50;99.90;;;;;;5068618;28;20170;-43
2023/01/11 10:21:32;;;;;;;7.38;2.63;;;10.40;99.90;;;;;;5069587;28;20538;-43
2023/01/11 10:24:04;;;;;;;11.85;3.20;;;10.40;99.90;;;;;;5069536;28;20786;-42
2023/01/11 10:26:38;;;;;;;18.38;3.40;;;10.40;99.90;;;;;;5070529;28;20173;-43
2023/01/11 10:42:45;;;;;;;12.05;3.50;;;10.50;99.90;;;;;;5074057;28;20244;-43
2023/01/11 10:45:26;;;;;;;9.13;3.47;;;10.50;99.90;;;;;;5073825;28;20177;-43
2023/01/11 10:48:01;;;;;;;7.00;3.05;;;10.50;99.90;;;;;;5073703;28;20165;-43
2023/01/11 10:50:37;;;;;;;14.07;3.95;;;10.50;99.90;;;;;;5073785;28;20185;-43
2023/01/11 10:53:22;;;;;;;18.40;4.03;;;10.50;99.90;;;;;;5073848;28;20162;-43
2023/01/11 10:56:19;;;;;;;15.40;3.35;;;10.50;99.90;;;;;;5073198;28;20679;-43
2023/01/11 10:58:53;;;;;;;16.83;4.88;;;10.50;99.90;;;;;;5073236;28;20166;-43
2023/01/11 11:01:49;;;;;;;9.80;3.15;;;10.50;99.90;;;;;;5073072;28;20219;-42
2023/01/11 11:04:33;;;;;;;16.67;3.97;;;10.40;99.90;;;;;;5073193;28;20189;-43
2023/01/11 11:07:33;;;;;;;9.75;2.90;;;10.40;99.90;;;;;;5071714;28;20170;-44
2023/01/11 11:10:20;;;;;;;15.45;2.88;;;10.40;99.90;;;;;;5072972;28;20293;-44
2023/01/11 11:13:08;;;;;;;15.30;3.28;;;10.40;99.90;;;;;;5073327;28;20219;-44
2023/01/11 11:16:23;;;;;;;14.32;3.55;;;10.40;99.90;;;;;;5073292;28;20170;-43
2023/01/11 11:18:50;;;;;;;14.82;2.65;;;10.40;99.90;;;;;;5061435;28;20185;-43
2023/01/11 11:21:27;;;;;;;12.00;3.55;;;10.40;99.90;;;;;;5072670;28;20634;-43
2023/01/11 11:24:02;;;;;;;11.65;2.60;;;10.40;99.90;;;;;;5073148;28;20193;-43
2023/01/11 11:26:41;;;;;;;11.45;2.70;;;10.40;99.90;;;;;;5072750;28;20181;-43
2023/01/11 11:29:09;;;;;;;13.82;3.08;;;10.40;99.90;;;;;;5073019;28;20201;-46
2023/01/11 11:31:41;;;;;;;14.23;3.13;;;10.40;99.90;;;;;;5072937;28;20239;-45
2023/01/11 11:34:13;;;;;;;10.75;3.08;;;10.50;99.90;;;;;;5073010;28;20177;-45
2023/01/11 11:36:44;;;;;;;7.22;3.15;;;10.50;99.90;;;;;;5072685;28;20162;-44
2023/01/11 11:39:17;;;;;;;11.05;3.38;;;10.60;99.90;;;;;;5071650;28;20656;-44
2023/01/11 11:41:51;;;;;;;15.60;2.80;;;10.70;99.90;;;;;;5072381;28;20162;-45
2023/01/11 11:44:21;;;;;;;8.13;2.42;;;10.90;99.90;;;;;;5072642;28;20178;-42
2023/01/11 11:47:03;;;;;;;14.30;2.50;;;10.90;99.90;;;;;;5072610;28;20188;-43
2023/01/11 11:49:30;;;;;;;12.35;2.97;;;10.90;99.90;;;;;;5072223;28;20209;-46
2023/01/11 11:51:59;;;;;;;10.82;3.13;;;10.80;99.90;;;;;;5070978;28;20196;-43
2023/01/11 11:54:31;;;;;;;5.90;2.20;;;10.70;99.90;;;;;;5072533;28;20174;-45
2023/01/11 11:57:11;;;;;;;10.18;2.47;;;10.60;99.90;;;;;;5071900;28;20166;-44
2023/01/11 11:59:36;;;;;;;11.82;2.28;;;10.60;99.90;;;;;;5072599;28;20166;-45
2023/01/11 12:02:06;;;;;;;14.50;3.30;;;9.60;99.90;;;;;;5072280;28;20222;-43
2023/01/11 12:04:46;;;;;;;7.47;2.50;;;10.40;99.90;;;;;;5072385;28;20203;-44
2023/01/11 12:07:19;;;;;;;10.48;2.67;;;10.30;99.90;;;;;;5072053;28;20166;-43
2023/01/11 12:10:01;;;;;;;15.25;5.70;;;10.30;99.90;;;;;;5071605;28;20206;-44
2023/01/11 12:12:27;;;;;;;9.18;2.38;;;10.40;99.90;;;;;;5071832;28;20162;-44
2023/01/11 12:15:17;;;;;;;6.85;2.60;;;10.50;99.90;;;;;;5071917;28;20173;-44
2023/01/11 12:17:43;;;;;;;11.60;2.80;;;10.70;99.90;;;;;;5071967;28;20177;-43
2023/01/11 12:20:20;;;;;;;16.05;2.90;;;10.80;99.90;;;;;;5071670;28;20174;-45
2023/01/11 12:22:47;;;;;;;7.05;2.70;;;10.80;99.90;;;;;;5071700;28;20220;-44
2023/01/11 12:25:24;;;;;;;13.55;2.55;;;10.70;99.90;;;;;;5071615;28;20274;-44
2023/01/11 12:28:13;;;;;;;11.70;3.05;;;10.70;99.90;;;;;;5071800;28;20257;-43
2023/01/11 12:30:51;;;;;;;9.15;2.30;;;10.70;99.90;;;;;;5071150;28;20204;-42
2023/01/11 12:33:36;;;;;;;14.10;3.10;;;10.70;99.90;;;;;;5071749;28;20189;-43
2023/01/11 12:36:05;;;;;;;9.15;2.05;;;10.70;99.90;;;;;;5071901;28;20174;-43
2023/01/11 12:38:52;;;;;;;7.72;2.25;;;10.70;99.90;;;;;;5071742;28;20722;-43
2023/01/11 12:41:55;;;;;;;8.98;2.60;;;10.70;99.90;;;;;;5071152;28;20170;-42
2023/01/11 12:44:58;;;;;;;7.03;3.25;;;10.70;99.90;;;;;;5071164;28;20169;-43
2023/01/11 12:47:45;;;;;;;10.35;2.83;;;10.70;99.90;;;;;;5071031;28;20232;-43
2023/01/11 12:50:21;;;;;;;11.23;2.65;;;10.70;99.90;;;;;;5070851;28;20209;-43
2023/01/11 12:52:55;;;;;;;13.25;2.53;;;10.70;99.90;;;;;;5071051;28;20204;-43
2023/01/11 12:55:55;;;;;;;9.57;1.92;;;10.60;99.90;;;;;;5070872;28;20207;-43
2023/01/11 12:58:33;;;;;;;12.93;2.63;;;10.60;99.90;;;;;;5061255;28;20272;-43
2023/01/11 13:01:16;;;;;;;19.33;4.28;;;10.60;99.90;;;;;;5070661;28;20185;-43
2023/01/11 13:04:19;;;;;;;10.93;3.63;;;10.70;99.90;;;;;;5070536;28;20297;-43
2023/01/11 13:07:18;;;;;;;9.95;2.60;;;12.40;99.90;;;;;;5035925;28;20671;-42
2023/01/11 13:10:21;;;;;;;10.13;2.92;;;10.70;99.90;;;;;;5070205;28;20622;-43
2023/01/11 13:12:51;;;;;;;12.57;1.95;;;10.70;99.90;;;;;;5070780;28;20173;-43
2023/01/11 13:15:40;;;;;;;12.82;2.78;;;10.70;99.90;;;;;;5070661;28;20165;-43
2023/01/11 13:18:56;;;;;;;6.10;2.03;;;10.70;99.90;;;;;;5070918;28;20162;-43
2023/01/11 13:21:32;;;;;;;13.30;4.30;;;10.60;99.90;;;;;;5055720;28;20672;-43
2023/01/11 13:24:12;;;;;;;12.38;2.75;;;10.70;99.90;;;;;;5070605;28;20197;-44
2023/01/11 13:26:41;;;;;;;9.88;3.95;;;10.60;99.90;;;;;;5070371;28;20182;-42
2023/01/11 13:29:24;;;;;;;11.50;3.58;;;10.60;99.90;;;;;;5070282;28;20214;-42
2023/01/11 13:31:51;;;;;;;9.88;2.90;;;10.50;99.90;;;;;;5070317;28;20166;-44
2023/01/11 13:34:38;;;;;;;10.07;4.28;;;10.50;99.90;;;;;;5070263;28;20178;-43
2023/01/11 13:37:20;;;;;;;13.73;4.05;;;10.50;99.90;;;;;;5070754;28;20174;-44
2023/01/11 13:40:06;;;;;;;15.07;3.95;;;10.60;99.90;;;;;;5070050;28;20174;-43
2023/01/11 13:42:42;;;;;;;11.85;2.88;;;10.60;99.90;;;;;;5070666;28;20219;-44
2023/01/11 13:45:36;;;;;;;11.80;3.20;;;10.60;99.90;;;;;;5069972;28;20212;-43
2023/01/11 13:48:32;;;;;;;10.50;3.90;;;10.70;99.90;;;;;;5050605;28;20178;-43
2023/01/11 13:51:01;;;;;;;10.88;3.42;;;10.70;99.90;;;;;;5070149;28;20162;-43
2023/01/11 13:53:40;;;;;;;15.00;3.50;;;10.50;99.90;;;;;;5070011;28;20353;-42